Time;durP1;ratioP1;P1;durP2;ratioP2;P2;SDS_P1;SDS_P2;PMS_P1;PMS_P2;Temp;Humidity;BMP_temperature;BMP_pressure;BME280_temperature;BME280_humidity;BME280_pressure;Samples;Min_cycle;Max_cycle;Signal;HPM_P1;HPM_P2
2023/03/21 00:00:30;;;;;;;11.50;7.47;;;;;;;;;;6276709;22;20088;-77
2023/03/21 00:02:56;;;;;;;9.48;6.93;;;;;;;;;;6303445;22;20014;-76
2023/03/21 00:05:22;;;;;;;8.23;7.18;;;;;;;;;;6276076;22;20100;-77
2023/03/21 00:07:48;;;;;;;8.07;6.82;;;;;;;;;;6277154;22;20034;-77
2023/03/21 00:10:14;;;;;;;8.98;6.75;;;;;;;;;;6304021;22;20015;-78
2023/03/21 00:12:41;;;;;;;7.30;6.50;;;;;;;;;;6250391;22;20007;-77
2023/03/21 00:15:08;;;;;;;13.77;6.40;;;;;;;;;;6303494;22;20518;-77
2023/03/21 00:17:34;;;;;;;6.53;5.93;;;;;;;;;;6250560;22;20341;-78
2023/03/21 00:20:01;;;;;;;7.82;6.57;;;;;;;;;;6276460;22;20510;-77
2023/03/21 00:22:28;;;;;;;9.48;6.22;;;;;;;;;;6303093;22;20459;-76
2023/03/21 00:24:55;;;;;;;12.10;6.18;;;;;;;;;;6303202;22;20023;-76
2023/03/21 00:27:21;;;;;;;6.78;6.18;;;;;;;;;;6303197;22;20094;-76
2023/03/21 00:29:50;;;;;;;7.70;6.00;;;;;;;;;;6303686;22;20098;-77
2023/03/21 00:32:17;;;;;;;7.72;6.68;;;;;;;;;;6303043;22;20007;-76
2023/03/21 00:34:45;;;;;;;10.18;8.15;;;;;;;;;;6275679;22;20471;-77
2023/03/21 00:37:13;;;;;;;13.90;7.93;;;;;;;;;;6302721;22;20003;-76
2023/03/21 00:39:42;;;;;;;11.32;7.93;;;;;;;;;;6306382;22;20017;-76
2023/03/21 00:42:08;;;;;;;7.75;6.72;;;;;;;;;;6304126;22;20637;-76
2023/03/21 00:44:35;;;;;;;8.77;7.13;;;;;;;;;;6303141;22;20019;-77
2023/03/21 00:47:02;;;;;;;9.18;7.38;;;;;;;;;;6302975;22;20019;-76
2023/03/21 00:49:32;;;;;;;8.57;6.07;;;;;;;;;;6303157;22;20007;-77
2023/03/21 00:52:01;;;;;;;13.60;6.95;;;;;;;;;;6275330;22;20018;-77
2023/03/21 00:54:27;;;;;;;9.30;6.05;;;;;;;;;;6302880;22;20058;-76
2023/03/21 00:56:53;;;;;;;7.28;6.38;;;;;;;;;;6302436;22;20014;-76
2023/03/21 00:59:20;;;;;;;7.20;6.25;;;;;;;;;;6302791;22;20019;-76
2023/03/21 01:01:46;;;;;;;7.90;5.72;;;;;;;;;;6302533;22;20026;-76
2023/03/21 01:04:13;;;;;;;6.07;5.47;;;;;;;;;;6275173;22;20094;-75
2023/03/21 01:06:40;;;;;;;6.40;5.80;;;;;;;;;;6275706;22;20011;-76
2023/03/21 01:09:06;;;;;;;11.10;5.20;;;;;;;;;;6249765;22;20011;-74
2023/03/21 01:11:35;;;;;;;7.43;6.15;;;;;;;;;;6249955;22;20490;-74
2023/03/21 01:14:02;;;;;;;8.38;6.35;;;;;;;;;;6302590;22;20018;-75
2023/03/21 01:16:29;;;;;;;9.68;6.47;;;;;;;;;;6249890;22;20011;-76
2023/03/21 01:18:55;;;;;;;8.55;6.22;;;;;;;;;;6275292;22;20120;-77
2023/03/21 01:21:21;;;;;;;15.65;6.32;;;;;;;;;;6275441;22;20015;-76
2023/03/21 01:23:47;;;;;;;7.13;6.43;;;;;;;;;;6302821;22;20007;-76
2023/03/21 01:26:13;;;;;;;8.27;5.97;;;;;;;;;;6274998;22;20015;-76
2023/03/21 01:28:40;;;;;;;5.00;4.38;;;;;;;;;;6249842;22;20046;-77
2023/03/21 01:31:06;;;;;;;11.18;5.55;;;;;;;;;;6302400;22;20015;-76
2023/03/21 01:33:32;;;;;;;9.13;5.38;;;;;;;;;;6302901;22;20011;-75
2023/03/21 01:35:58;;;;;;;7.60;5.60;;;;;;;;;;6301994;22;20580;-76
2023/03/21 01:38:27;;;;;;;6.30;5.22;;;;;;;;;;6276106;22;20015;-78
2023/03/21 01:40:53;;;;;;;6.40;5.28;;;;;;;;;;6249730;22;20011;-77
2023/03/21 01:43:31;;;;;;;9.05;7.03;;;;;;;;;;6250144;22;20018;-76
2023/03/21 01:46:20;;;;;;;6.72;6.10;;;;;;;;;;6302459;22;20520;-77
2023/03/21 01:49:06;;;;;;;7.60;6.55;;;;;;;;;;6255543;22;20065;-76
2023/03/21 01:51:33;;;;;;;9.65;5.97;;;;;;;;;;6258450;22;20472;-75
2023/03/21 01:54:00;;;;;;;8.23;6.10;;;;;;;;;;6230476;22;20015;-76
2023/03/21 01:56:34;;;;;;;7.22;6.53;;;;;;;;;;6259812;22;20015;-76
2023/03/21 01:59:05;;;;;;;9.98;6.55;;;;;;;;;;6314276;22;20064;-77
2023/03/21 02:02:06;;;;;;;13.73;6.43;;;;;;;;;;6265941;22;20015;-77
2023/03/21 02:04:35;;;;;;;10.43;5.88;;;;;;;;;;6252674;22;20022;-76
2023/03/21 02:07:16;;;;;;;;;;;;;;;;;;6250816;22;20098;-77
2023/03/21 02:09:50;;;;;;;6.82;6.22;;;;;;;;;;6275972;22;19986;-77
2023/03/21 02:12:20;;;;;;;6.90;5.88;;;;;;;;;;6250666;22;20022;-78
2023/03/21 02:14:49;;;;;;;8.27;6.60;;;;;;;;;;6275532;22;20015;-76
2023/03/21 02:17:39;;;;;;;7.95;6.07;;;;;;;;;;6228814;22;20015;-76
2023/03/21 02:20:25;;;;;;;11.35;6.25;;;;;;;;;;6250550;22;20038;-76
2023/03/21 02:22:53;;;;;;;12.27;7.20;;;;;;;;;;6277059;22;20011;-76
2023/03/21 02:25:26;;;;;;;9.88;6.60;;;;;;;;;;6276934;22;20015;-76
2023/03/21 02:27:56;;;;;;;9.88;6.80;;;;;;;;;;6277271;22;20363;-77
2023/03/21 02:30:31;;;;;;;16.02;7.70;;;;;;;;;;6252018;22;20072;-77
2023/03/21 02:33:07;;;;;;;9.23;6.68;;;;;;;;;;6276935;22;20038;-77
2023/03/21 02:35:36;;;;;;;11.98;6.93;;;;;;;;;;6304738;22;20007;-76
2023/03/21 02:38:27;;;;;;;8.18;6.38;;;;;;;;;;6251360;22;20015;-77
2023/03/21 02:41:02;;;;;;;8.07;6.78;;;;;;;;;;6259444;22;20007;-77
2023/03/21 02:43:41;;;;;;;8.02;6.30;;;;;;;;;;6252381;22;20023;-77
2023/03/21 02:46:20;;;;;;;9.90;6.65;;;;;;;;;;6252599;22;20459;-77
2023/03/21 02:48:50;;;;;;;19.60;6.15;;;;;;;;;;6277956;22;20043;-77
2023/03/21 02:51:18;;;;;;;9.30;6.38;;;;;;;;;;6251956;22;20076;-76
2023/03/21 02:53:44;;;;;;;7.25;6.32;;;;;;;;;;6277530;22;20007;-75
2023/03/21 02:56:11;;;;;;;13.25;5.90;;;;;;;;;;6251469;22;20463;-77
2023/03/21 02:58:42;;;;;;;9.82;6.18;;;;;;;;;;6252922;22;20091;-77
2023/03/21 03:01:09;;;;;;;6.47;5.85;;;;;;;;;;6252049;22;20007;-78
2023/03/21 03:03:59;;;;;;;9.13;5.65;;;;;;;;;;6281984;22;20084;-77
2023/03/21 03:06:40;;;;;;;11.00;5.82;;;;;;;;;;6252007;22;20033;-77
2023/03/21 03:09:08;;;;;;;9.68;5.78;;;;;;;;;;6226731;22;20015;-77
2023/03/21 03:11:34;;;;;;;7.50;6.07;;;;;;;;;;6276892;22;20030;-78
2023/03/21 03:14:01;;;;;;;7.88;6.45;;;;;;;;;;6277351;22;20011;-77
2023/03/21 03:16:47;;;;;;;8.93;6.53;;;;;;;;;;6276895;22;20521;-76
2023/03/21 03:19:19;;;;;;;7.65;6.57;;;;;;;;;;6275328;22;20098;-74
2023/03/21 03:21:55;;;;;;;9.13;6.47;;;;;;;;;;6225616;22;20018;-74
2023/03/21 03:24:23;;;;;;;6.22;5.63;;;;;;;;;;6278163;22;20019;-75
2023/03/21 03:26:55;;;;;;;10.98;6.85;;;;;;;;;;6257803;22;20014;-74
2023/03/21 03:29:24;;;;;;;8.10;6.60;;;;;;;;;;6256776;22;20015;-75
2023/03/21 03:31:52;;;;;;;8.93;6.22;;;;;;;;;;6309862;22;20003;-75
2023/03/21 03:34:20;;;;;;;7.38;6.47;;;;;;;;;;6257194;22;20068;-76
2023/03/21 03:36:50;;;;;;;10.77;6.78;;;;;;;;;;6284890;22;20019;-76
2023/03/21 03:39:17;;;;;;;8.73;7.93;;;;;;;;;;6234002;22;20042;-77
2023/03/21 03:41:48;;;;;;;;;;;;;;;;;;6278198;22;20538;-77
2023/03/21 03:44:14;;;;;;;8.38;7.47;;;;;;;;;;6251365;22;19961;-76
2023/03/21 03:46:49;;;;;;;8.23;7.35;;;;;;;;;;6228166;22;20018;-76
2023/03/21 03:49:22;;;;;;;9.23;6.30;;;;;;;;;;6304220;22;20007;-76
2023/03/21 03:51:53;;;;;;;8.70;7.78;;;;;;;;;;6223010;22;20015;-77
2023/03/21 03:54:43;;;;;;;11.45;6.70;;;;;;;;;;6281747;22;20451;-80
2023/03/21 03:57:11;;;;;;;8.27;6.93;;;;;;;;;;6252703;22;20015;-80
2023/03/21 03:59:37;;;;;;;7.35;6.45;;;;;;;;;;6277721;22;20015;-80
2023/03/21 04:02:25;;;;;;;8.45;6.53;;;;;;;;;;6251871;22;20353;-79
2023/03/21 04:04:52;;;;;;;9.73;6.22;;;;;;;;;;6253425;22;20023;-78
2023/03/21 04:07:20;;;;;;;16.08;6.68;;;;;;;;;;6252482;22;20007;-80
2023/03/21 04:09:48;;;;;;;12.15;6.88;;;;;;;;;;6251778;22;20011;-79
2023/03/21 04:12:18;;;;;;;9.35;7.13;;;;;;;;;;6275826;22;20113;-80
2023/03/21 04:15:10;;;;;;;8.05;7.03;;;;;;;;;;6301426;22;20018;-78
2023/03/21 04:17:38;;;;;;;10.23;6.57;;;;;;;;;;6276836;22;20057;-77
2023/03/21 04:20:05;;;;;;;8.52;6.50;;;;;;;;;;6303527;22;20011;-78
2023/03/21 04:22:32;;;;;;;10.27;7.25;;;;;;;;;;6252488;22;20011;-80
2023/03/21 04:25:00;;;;;;;13.20;7.20;;;;;;;;;;6255318;22;20399;-77
2023/03/21 04:27:29;;;;;;;10.60;7.55;;;;;;;;;;6291938;22;20041;-80
2023/03/21 04:30:23;;;;;;;15.15;7.88;;;;;;;;;;6319695;22;20007;-79
2023/03/21 04:33:08;;;;;;;12.85;7.53;;;;;;;;;;6322445;22;20015;-80
2023/03/21 04:35:35;;;;;;;8.20;7.22;;;;;;;;;;6268815;22;20007;-80
2023/03/21 04:38:03;;;;;;;8.27;7.32;;;;;;;;;;6267368;22;20298;-80
2023/03/21 04:40:28;;;;;;;18.75;8.77;;;;;;;;;;6312036;22;20015;-80
2023/03/21 04:42:55;;;;;;;11.68;7.47;;;;;;;;;;6275824;22;20011;-78
2023/03/21 04:45:21;;;;;;;9.75;8.02;;;;;;;;;;6251858;22;20094;-81
2023/03/21 04:47:47;;;;;;;10.30;7.43;;;;;;;;;;6277183;22;20351;-79
2023/03/21 04:50:14;;;;;;;9.63;7.45;;;;;;;;;;6277711;22;20455;-81
2023/03/21 04:52:40;;;;;;;7.75;6.95;;;;;;;;;;6278989;22;20098;-80
2023/03/21 04:55:08;;;;;;;16.35;8.02;;;;;;;;;;6305058;22;20114;-77
2023/03/21 04:57:38;;;;;;;10.55;7.78;;;;;;;;;;6303247;22;20470;-76
2023/03/21 05:00:08;;;;;;;8.88;7.97;;;;;;;;;;6275020;22;20096;-76
2023/03/21 05:02:34;;;;;;;14.90;8.05;;;;;;;;;;6275772;22;20022;-77
2023/03/21 05:05:00;;;;;;;16.63;7.30;;;;;;;;;;6302186;22;20030;-78
2023/03/21 05:07:26;;;;;;;11.38;7.50;;;;;;;;;;6274787;22;20035;-80
2023/03/21 05:09:53;;;;;;;10.15;7.75;;;;;;;;;;6249684;22;20386;-77
2023/03/21 05:12:20;;;;;;;10.38;7.15;;;;;;;;;;6274377;22;20015;-77
2023/03/21 05:14:45;;;;;;;11.23;7.68;;;;;;;;;;6302967;22;20011;-77
2023/03/21 05:17:14;;;;;;;9.15;7.45;;;;;;;;;;6249284;22;20015;-77
2023/03/21 05:19:41;;;;;;;8.25;7.18;;;;;;;;;;6274749;22;20007;-80
2023/03/21 05:22:08;;;;;;;11.13;7.65;;;;;;;;;;6274664;22;20010;-78
2023/03/21 05:24:36;;;;;;;14.13;8.27;;;;;;;;;;6275292;22;20025;-78
2023/03/21 05:27:02;;;;;;;11.05;6.07;;;;;;;;;;6302579;22;20039;-76
2023/03/21 05:29:32;;;;;;;10.52;7.50;;;;;;;;;;6275027;22;20034;-78
2023/03/21 05:32:01;;;;;;;12.52;7.60;;;;;;;;;;6275024;22;20015;-76
2023/03/21 05:34:28;;;;;;;7.75;6.45;;;;;;;;;;6274833;22;20015;-76
2023/03/21 05:36:54;;;;;;;8.15;7.35;;;;;;;;;;6301744;22;20022;-77
2023/03/21 05:39:23;;;;;;;11.13;7.35;;;;;;;;;;6274401;22;20034;-75
2023/03/21 05:42:06;;;;;;;10.85;7.13;;;;;;;;;;6274342;22;20015;-76
2023/03/21 05:44:33;;;;;;;8.85;6.78;;;;;;;;;;6274582;22;20026;-74
2023/03/21 05:47:03;;;;;;;8.35;6.65;;;;;;;;;;6274133;22;20011;-77
2023/03/21 05:49:37;;;;;;;7.35;6.60;;;;;;;;;;6250773;22;20042;-76
2023/03/21 05:52:04;;;;;;;9.75;6.80;;;;;;;;;;6274482;22;20086;-76
2023/03/21 05:54:31;;;;;;;9.10;7.82;;;;;;;;;;6274893;22;20040;-78
2023/03/21 05:56:58;;;;;;;13.02;8.00;;;;;;;;;;6250390;22;20038;-77
2023/03/21 05:59:47;;;;;;;9.88;7.53;;;;;;;;;;6260634;22;20010;-76
2023/03/21 06:02:13;;;;;;;16.58;7.43;;;;;;;;;;6276215;22;20356;-75
2023/03/21 06:04:41;;;;;;;8.90;6.28;;;;;;;;;;6250660;22;20022;-74
2023/03/21 06:07:06;;;;;;;10.07;7.85;;;;;;;;;;6303523;22;20478;-75
2023/03/21 06:09:33;;;;;;;10.77;7.25;;;;;;;;;;6251435;22;20011;-75
2023/03/21 06:12:02;;;;;;;8.50;7.63;;;;;;;;;;6246265;22;20023;-77
2023/03/21 06:14:52;;;;;;;9.70;6.70;;;;;;;;;;6228227;22;20060;-76
2023/03/21 06:17:22;;;;;;;13.27;7.57;;;;;;;;;;6247009;22;20016;-77
2023/03/21 06:19:55;;;;;;;10.10;7.93;;;;;;;;;;6271110;22;20011;-75
2023/03/21 06:22:30;;;;;;;9.43;7.85;;;;;;;;;;6270463;22;20031;-74
2023/03/21 06:24:56;;;;;;;12.63;8.38;;;;;;;;;;6272784;22;20177;-77
2023/03/21 06:27:22;;;;;;;8.93;7.50;;;;;;;;;;6271521;22;20012;-74
2023/03/21 06:29:53;;;;;;;11.57;7.97;;;;;;;;;;6270842;22;20205;-76
2023/03/21 06:32:20;;;;;;;19.13;8.55;;;;;;;;;;6270113;22;20018;-75
2023/03/21 06:34:52;;;;;;;4.95;4.53;;;;;;;;;;6271373;22;20015;-75
2023/03/21 06:37:18;;;;;;;14.73;8.75;;;;;;;;;;6245341;22;20507;-76
2023/03/21 06:39:45;;;;;;;13.63;8.90;;;;;;;;;;6245518;22;20014;-76
2023/03/21 06:42:12;;;;;;;15.27;8.43;;;;;;;;;;6270817;22;20012;-75
2023/03/21 06:44:38;;;;;;;18.88;9.88;;;;;;;;;;6272318;22;20031;-76
2023/03/21 06:47:08;;;;;;;14.75;9.45;;;;;;;;;;6271031;22;20065;-76
2023/03/21 06:49:35;;;;;;;17.77;8.50;;;;;;;;;;6273213;22;20015;-75
2023/03/21 06:52:06;;;;;;;12.32;8.88;;;;;;;;;;6274078;22;20038;-73
2023/03/21 06:54:33;;;;;;;14.02;9.02;;;;;;;;;;6256441;22;20039;-74
2023/03/21 06:57:02;;;;;;;14.15;8.27;;;;;;;;;;6257560;22;20075;-74
2023/03/21 06:59:32;;;;;;;14.32;8.05;;;;;;;;;;6278672;22;20012;-75
2023/03/21 07:02:01;;;;;;;14.73;8.15;;;;;;;;;;6223913;22;20069;-74
2023/03/21 07:04:29;;;;;;;16.02;7.90;;;;;;;;;;6270697;22;20368;-77
2023/03/21 07:06:57;;;;;;;13.02;8.65;;;;;;;;;;6271419;22;20015;-74
2023/03/21 07:09:26;;;;;;;18.98;9.27;;;;;;;;;;6270308;22;20361;-75
2023/03/21 07:11:56;;;;;;;16.88;8.55;;;;;;;;;;6250013;22;20025;-76
2023/03/21 07:14:28;;;;;;;11.25;8.57;;;;;;;;;;6251361;22;20019;-74
2023/03/21 07:16:55;;;;;;;13.02;8.27;;;;;;;;;;6250226;22;20011;-75
2023/03/21 07:19:21;;;;;;;14.07;9.23;;;;;;;;;;6275699;22;20098;-76
2023/03/21 07:21:47;;;;;;;9.05;7.38;;;;;;;;;;6269837;22;20483;-76
2023/03/21 07:24:14;;;;;;;11.18;8.35;;;;;;;;;;6301394;22;20016;-75
2023/03/21 07:26:40;;;;;;;14.48;8.95;;;;;;;;;;6295434;22;20011;-77
2023/03/21 07:29:06;;;;;;;15.20;8.20;;;;;;;;;;6268470;22;20417;-77
2023/03/21 07:31:32;;;;;;;16.17;8.77;;;;;;;;;;6268810;22;20220;-75
2023/03/21 07:33:58;;;;;;;23.58;13.32;;;;;;;;;;6249116;22;20010;-76
2023/03/21 07:36:25;;;;;;;10.13;8.68;;;;;;;;;;6261578;22;20018;-76
2023/03/21 07:38:51;;;;;;;18.80;8.77;;;;;;;;;;6299411;22;20011;-76
2023/03/21 07:41:21;;;;;;;10.50;8.35;;;;;;;;;;6275245;22;20015;-76
2023/03/21 07:43:49;;;;;;;11.25;9.35;;;;;;;;;;6275106;22;20011;-77
2023/03/21 07:46:17;;;;;;;10.10;7.75;;;;;;;;;;6275313;22;20023;-76
2023/03/21 07:48:43;;;;;;;16.58;8.88;;;;;;;;;;6302062;22;20018;-76
2023/03/21 07:51:09;;;;;;;21.73;8.00;;;;;;;;;;6302915;22;20105;-75
2023/03/21 07:53:35;;;;;;;13.30;8.82;;;;;;;;;;6302592;22;20091;-76
2023/03/21 07:56:01;;;;;;;18.35;8.98;;;;;;;;;;6274220;22;20043;-78
2023/03/21 07:58:28;;;;;;;13.90;8.27;;;;;;;;;;6299272;22;20019;-76
2023/03/21 08:00:56;;;;;;;9.95;8.77;;;;;;;;;;6299924;22;20094;-77
2023/03/21 08:03:22;;;;;;;16.27;8.85;;;;;;;;;;6294235;22;20328;-75
2023/03/21 08:05:49;;;;;;;18.55;9.75;;;;;;;;;;6269364;22;20456;-76
2023/03/21 08:08:15;;;;;;;12.55;9.27;;;;;;;;;;6301191;22;20018;-78
2023/03/21 08:10:43;;;;;;;16.88;10.13;;;;;;;;;;6273266;22;20023;-75
2023/03/21 08:13:09;;;;;;;25.80;10.10;;;;;;;;;;6271946;22;20011;-75
2023/03/21 08:15:36;;;;;;;18.50;10.00;;;;;;;;;;6274178;22;20353;-76
2023/03/21 08:18:02;;;;;;;13.25;8.88;;;;;;;;;;6301582;22;20471;-74
2023/03/21 08:20:28;;;;;;;11.80;9.63;;;;;;;;;;6274805;22;20021;-75
2023/03/21 08:22:54;;;;;;;15.68;8.50;;;;;;;;;;6302341;22;20063;-77
2023/03/21 08:25:20;;;;;;;16.13;9.27;;;;;;;;;;6274948;22;20058;-75
2023/03/21 08:27:47;;;;;;;17.55;8.60;;;;;;;;;;6302247;22;20102;-76
2023/03/21 08:30:13;;;;;;;8.88;8.05;;;;;;;;;;6247568;22;20018;-77
2023/03/21 08:32:41;;;;;;;10.32;7.88;;;;;;;;;;6301196;22;20079;-78
2023/03/21 08:35:10;;;;;;;10.63;8.68;;;;;;;;;;6275184;22;20042;-74
2023/03/21 08:37:37;;;;;;;13.73;9.05;;;;;;;;;;6302373;22;20101;-76
2023/03/21 08:40:07;;;;;;;8.60;7.55;;;;;;;;;;6274995;22;20007;-75
2023/03/21 08:42:34;;;;;;;14.20;9.15;;;;;;;;;;6302412;22;20035;-76
2023/03/21 08:45:00;;;;;;;12.82;10.35;;;;;;;;;;6274622;22;20019;-76
2023/03/21 08:47:26;;;;;;;10.85;9.50;;;;;;;;;;6301112;22;20364;-77
2023/03/21 08:49:52;;;;;;;13.23;9.43;;;;;;;;;;6274389;22;20114;-76
2023/03/21 08:52:18;;;;;;;8.65;7.75;;;;;;;;;;6301451;22;20007;-75
2023/03/21 08:54:44;;;;;;;8.50;7.60;;;;;;;;;;6301811;22;20215;-75
2023/03/21 08:57:10;;;;;;;16.73;8.27;;;;;;;;;;6301591;22;20034;-76
2023/03/21 08:59:37;;;;;;;8.70;7.65;;;;;;;;;;6302666;22;20015;-76
2023/03/21 09:02:03;;;;;;;10.20;7.80;;;;;;;;;;6302133;22;20034;-77
2023/03/21 09:04:29;;;;;;;8.52;7.60;;;;;;;;;;6302372;22;20015;-74
2023/03/21 09:06:55;;;;;;;7.72;6.93;;;;;;;;;;6302304;22;20011;-75
2023/03/21 09:09:21;;;;;;;6.70;6.10;;;;;;;;;;6279237;22;20018;-74
2023/03/21 09:11:48;;;;;;;11.98;6.65;;;;;;;;;;6302955;22;20023;-77
2023/03/21 09:14:14;;;;;;;8.82;7.72;;;;;;;;;;6301876;22;20489;-77
2023/03/21 09:16:40;;;;;;;8.65;7.78;;;;;;;;;;6277326;22;20015;-76
2023/03/21 09:19:07;;;;;;;14.65;9.50;;;;;;;;;;6306585;22;20011;-80
2023/03/21 09:21:33;;;;;;;10.63;8.20;;;;;;;;;;6250565;22;20404;-78
2023/03/21 09:24:00;;;;;;;11.80;8.45;;;;;;;;;;6276628;22;20014;-77
2023/03/21 09:26:26;;;;;;;8.57;7.15;;;;;;;;;;6274526;22;20023;-78
2023/03/21 09:28:57;;;;;;;9.10;7.03;;;;;;;;;;6247345;22;20082;-75
2023/03/21 09:31:23;;;;;;;8.02;5.57;;;;;;;;;;6300204;22;20045;-76
2023/03/21 09:33:50;;;;;;;9.18;6.45;;;;;;;;;;6272616;22;20015;-77
2023/03/21 09:36:17;;;;;;;8.50;6.88;;;;;;;;;;6272894;22;20095;-77
2023/03/21 09:38:44;;;;;;;7.60;6.38;;;;;;;;;;6273397;22;20015;-77
2023/03/21 09:41:17;;;;;;;7.82;6.85;;;;;;;;;;6300045;22;20018;-75
2023/03/21 09:43:49;;;;;;;8.00;7.15;;;;;;;;;;6300241;22;20043;-75
2023/03/21 09:46:20;;;;;;;5.70;5.18;;;;;;;;;;6300941;22;20077;-76
2023/03/21 09:48:53;;;;;;;7.45;6.20;;;;;;;;;;6302021;22;20023;-77
2023/03/21 09:51:19;;;;;;;7.90;7.00;;;;;;;;;;6275122;22;20015;-77
2023/03/21 09:53:46;;;;;;;6.75;6.15;;;;;;;;;;6274333;22;20060;-77
2023/03/21 09:56:12;;;;;;;6.72;6.13;;;;;;;;;;6276873;22;20019;-76
2023/03/21 09:58:51;;;;;;;6.55;5.93;;;;;;;;;;6301798;22;20022;-75
2023/03/21 10:01:26;;;;;;;7.88;5.80;;;;;;;;;;6302621;22;20007;-75
2023/03/21 10:03:55;;;;;;;9.57;7.13;;;;;;;;;;6275236;22;20068;-76
2023/03/21 10:06:27;;;;;;;9.63;6.47;;;;;;;;;;6224842;22;20023;-76
2023/03/21 10:08:54;;;;;;;11.60;7.00;;;;;;;;;;6275668;22;20011;-76
2023/03/21 10:11:21;;;;;;;6.28;5.72;;;;;;;;;;6249107;22;20023;-76
2023/03/21 10:13:49;;;;;;;9.18;6.40;;;;;;;;;;6275036;22;20018;-77
2023/03/21 10:16:16;;;;;;;7.75;7.05;;;;;;;;;;6275548;22;20085;-77
2023/03/21 10:18:42;;;;;;;9.05;6.55;;;;;;;;;;6275170;22;20507;-76
2023/03/21 10:21:10;;;;;;;7.90;7.18;;;;;;;;;;6302933;22;20351;-76
2023/03/21 10:23:36;;;;;;;10.27;6.90;;;;;;;;;;6275037;22;20042;-76
2023/03/21 10:26:04;;;;;;;8.10;6.63;;;;;;;;;;6275528;22;20458;-76
2023/03/21 10:28:31;;;;;;;7.35;6.65;;;;;;;;;;6249738;22;20011;-76
2023/03/21 10:30:58;;;;;;;5.70;5.22;;;;;;;;;;6302845;22;20011;-76
2023/03/21 10:33:29;;;;;;;8.15;6.25;;;;;;;;;;6275441;22;20068;-76
2023/03/21 10:35:56;;;;;;;6.57;5.97;;;;;;;;;;6275464;22;20098;-77
2023/03/21 10:38:22;;;;;;;8.32;6.53;;;;;;;;;;6300854;22;20007;-74
2023/03/21 10:40:48;;;;;;;15.45;7.43;;;;;;;;;;6273895;22;20527;-76
2023/03/21 10:43:36;;;;;;;10.40;6.72;;;;;;;;;;6302902;22;20100;-76
2023/03/21 10:46:22;;;;;;;10.15;5.60;;;;;;;;;;6276610;22;20084;-77
2023/03/21 10:48:51;;;;;;;6.72;6.13;;;;;;;;;;6277045;22;20007;-76
2023/03/21 10:51:21;;;;;;;6.35;5.75;;;;;;;;;;6276596;22;20018;-76
2023/03/21 10:53:52;;;;;;;6.60;5.88;;;;;;;;;;6276187;22;20007;-76
2023/03/21 10:56:18;;;;;;;7.82;6.50;;;;;;;;;;6303801;22;20011;-75
2023/03/21 10:58:45;;;;;;;7.35;5.68;;;;;;;;;;6275885;22;20017;-77
2023/03/21 11:01:17;;;;;;;5.60;5.10;;;;;;;;;;6303822;22;20019;-79
2023/03/21 11:03:45;;;;;;;5.97;5.40;;;;;;;;;;6276727;22;20053;-80
2023/03/21 11:06:14;;;;;;;6.82;5.28;;;;;;;;;;6303800;22;20023;-78
2023/03/21 11:08:43;;;;;;;5.57;5.10;;;;;;;;;;6275730;22;20099;-78
2023/03/21 11:11:11;;;;;;;5.65;4.68;;;;;;;;;;6276221;22;20021;-82
2023/03/21 11:13:40;;;;;;;7.60;6.45;;;;;;;;;;6303358;22;20019;-78
2023/03/21 11:16:07;;;;;;;7.05;6.45;;;;;;;;;;6253474;22;20038;-78
2023/03/21 11:18:33;;;;;;;7.00;5.25;;;;;;;;;;6284333;22;20007;-78
2023/03/21 11:21:06;;;;;;;8.60;6.07;;;;;;;;;;6253501;22;20011;-78
2023/03/21 11:23:33;;;;;;;5.85;4.40;;;;;;;;;;6262260;22;20031;-80
2023/03/21 11:25:59;;;;;;;6.35;5.85;;;;;;;;;;6290517;22;20018;-79
2023/03/21 11:28:32;;;;;;;5.13;4.45;;;;;;;;;;6316131;22;20459;-77
2023/03/21 11:30:59;;;;;;;5.35;4.85;;;;;;;;;;6254079;22;20554;-76
2023/03/21 11:33:26;;;;;;;5.13;4.63;;;;;;;;;;6304136;22;20011;-77
2023/03/21 11:36:00;;;;;;;12.85;6.85;;;;;;;;;;6305248;22;20094;-79
2023/03/21 11:38:28;;;;;;;9.27;4.90;;;;;;;;;;6276843;22;20011;-79
2023/03/21 11:40:56;;;;;;;5.78;5.22;;;;;;;;;;6278267;22;20017;-79
2023/03/21 11:43:26;;;;;;;7.43;4.85;;;;;;;;;;6275611;22;20102;-79
2023/03/21 11:46:11;;;;;;;5.23;4.63;;;;;;;;;;6276837;22;20046;-78
2023/03/21 11:48:41;;;;;;;6.25;5.65;;;;;;;;;;6302911;22;20042;-78
2023/03/21 11:51:16;;;;;;;5.47;4.45;;;;;;;;;;6276663;22;20065;-78
2023/03/21 11:53:45;;;;;;;5.03;4.60;;;;;;;;;;6275602;22;20094;-80
2023/03/21 11:56:38;;;;;;;7.82;5.05;;;;;;;;;;6304181;22;20011;-78
2023/03/21 11:59:24;;;;;;;13.85;4.47;;;;;;;;;;6296856;22;20086;-79
2023/03/21 12:02:08;;;;;;;5.63;3.40;;;;;;;;;;6303576;22;20015;-79
2023/03/21 12:04:35;;;;;;;4.20;3.90;;;;;;;;;;6305721;22;20093;-80
2023/03/21 12:07:15;;;;;;;4.57;3.95;;;;;;;;;;6307272;22;20018;-79
2023/03/21 12:09:41;;;;;;;;;;;;;;;;;;6306374;22;20026;-80
2023/03/21 12:12:08;;;;;;;4.65;4.25;;;;;;;;;;6255559;22;20285;-82
2023/03/21 12:14:50;;;;;;;5.00;4.60;;;;;;;;;;6304471;22;20011;-80
2023/03/21 12:17:20;;;;;;;10.82;4.25;;;;;;;;;;6277546;22;20066;-80
2023/03/21 12:20:09;;;;;;;5.13;3.63;;;;;;;;;;6250923;22;20007;-78
2023/03/21 12:22:47;;;;;;;4.60;3.70;;;;;;;;;;6216323;22;20076;-79
2023/03/21 12:25:18;;;;;;;4.18;3.78;;;;;;;;;;6276060;22;20340;-78
2023/03/21 12:27:44;;;;;;;4.07;3.47;;;;;;;;;;6275997;22;20007;-79
2023/03/21 12:30:29;;;;;;;4.13;3.70;;;;;;;;;;6304044;22;20018;-79
2023/03/21 12:33:05;;;;;;;3.53;3.33;;;;;;;;;;6303834;22;20398;-80
2023/03/21 12:35:35;;;;;;;3.00;2.80;;;;;;;;;;6303814;22;20048;-79
2023/03/21 12:38:05;;;;;;;5.55;4.10;;;;;;;;;;6276276;22;20018;-79
2023/03/21 12:40:34;;;;;;;3.97;3.25;;;;;;;;;;6251248;22;20474;-80
2023/03/21 12:43:19;;;;;;;3.00;2.80;;;;;;;;;;6303780;22;20086;-79
2023/03/21 12:45:46;;;;;;;3.47;3.28;;;;;;;;;;6303672;22;20456;-79
2023/03/21 12:48:14;;;;;;;3.80;3.60;;;;;;;;;;6303632;22;20476;-79
2023/03/21 12:50:41;;;;;;;4.80;2.90;;;;;;;;;;6276681;22;20015;-79
2023/03/21 12:53:29;;;;;;;4.03;3.72;;;;;;;;;;6304509;22;20011;-79
2023/03/21 12:55:55;;;;;;;3.50;3.20;;;;;;;;;;6276363;22;20014;-79
2023/03/21 12:58:23;;;;;;;3.40;2.95;;;;;;;;;;6303409;22;20451;-79
2023/03/21 13:00:53;;;;;;;3.40;3.05;;;;;;;;;;6277252;22;20014;-79
2023/03/21 13:03:20;;;;;;;3.40;3.17;;;;;;;;;;6304151;22;20007;-80
2023/03/21 13:05:57;;;;;;;3.55;3.25;;;;;;;;;;6276126;22;20022;-79
2023/03/21 13:08:23;;;;;;;3.53;3.33;;;;;;;;;;6277163;22;20007;-79
2023/03/21 13:10:49;;;;;;;2.70;2.53;;;;;;;;;;6275898;22;20076;-79
2023/03/21 13:13:30;;;;;;;3.15;2.95;;;;;;;;;;6276384;22;20003;-80
2023/03/21 13:15:56;;;;;;;2.88;2.67;;;;;;;;;;6276803;22;20019;-80
2023/03/21 13:18:34;;;;;;;3.20;3.00;;;;;;;;;;6304210;22;20095;-78
2023/03/21 13:21:01;;;;;;;2.78;2.58;;;;;;;;;;6277667;22;20042;-80
2023/03/21 13:23:36;;;;;;;4.63;3.03;;;;;;;;;;6277123;22;20011;-80
2023/03/21 13:26:02;;;;;;;2.90;2.70;;;;;;;;;;6280239;22;20019;-81
2023/03/21 13:28:28;;;;;;;2.80;2.47;;;;;;;;;;6274974;22;20011;-79
2023/03/21 13:31:13;;;;;;;3.60;2.55;;;;;;;;;;6250670;22;20015;-79
2023/03/21 13:33:43;;;;;;;2.67;2.47;;;;;;;;;;6302173;22;20510;-79
2023/03/21 13:36:12;;;;;;;3.20;2.90;;;;;;;;;;6302187;22;20022;-80
2023/03/21 13:38:38;;;;;;;3.70;3.40;;;;;;;;;;6274909;22;20034;-78
2023/03/21 13:41:06;;;;;;;2.72;2.58;;;;;;;;;;6275062;22;20391;-79
2023/03/21 13:43:38;;;;;;;4.57;2.33;;;;;;;;;;6275227;22;20011;-80
2023/03/21 13:46:28;;;;;;;4.18;3.05;;;;;;;;;;6302701;22;20034;-79
2023/03/21 13:48:55;;;;;;;3.75;3.13;;;;;;;;;;6231606;22;20621;-80
2023/03/21 13:51:42;;;;;;;4.38;2.78;;;;;;;;;;6303038;22;20014;-80
2023/03/21 13:54:14;;;;;;;3.90;2.13;;;;;;;;;;6275405;22;20011;-80
2023/03/21 13:56:46;;;;;;;3.80;2.90;;;;;;;;;;6302275;22;20011;-78
2023/03/21 13:59:15;;;;;;;3.22;3.00;;;;;;;;;;6302825;22;20011;-79
2023/03/21 14:01:57;;;;;;;3.47;2.60;;;;;;;;;;6302629;22;20011;-79
2023/03/21 14:04:28;;;;;;;5.50;2.80;;;;;;;;;;6276621;22;20100;-80
2023/03/21 14:06:55;;;;;;;2.78;2.50;;;;;;;;;;6303909;22;20128;-80
2023/03/21 14:09:27;;;;;;;3.35;3.05;;;;;;;;;;6303584;22;20007;-81
2023/03/21 14:11:54;;;;;;;2.47;2.28;;;;;;;;;;6303331;22;20050;-80
2023/03/21 14:14:20;;;;;;;2.70;2.33;;;;;;;;;;6303607;22;20011;-81
2023/03/21 14:16:47;;;;;;;3.13;2.92;;;;;;;;;;6304538;22;20455;-80
2023/03/21 14:19:12;;;;;;;2.90;2.70;;;;;;;;;;6278700;22;20018;-79
2023/03/21 14:21:45;;;;;;;3.17;2.97;;;;;;;;;;6305425;22;20015;-78
2023/03/21 14:24:11;;;;;;;4.80;2.90;;;;;;;;;;6304936;22;20018;-79
2023/03/21 14:26:41;;;;;;;4.25;3.13;;;;;;;;;;6304893;22;20857;-79
2023/03/21 14:29:07;;;;;;;3.55;3.25;;;;;;;;;;6277407;22;20094;-79
2023/03/21 14:31:34;;;;;;;4.50;2.80;;;;;;;;;;6277684;22;20508;-79
2023/03/21 14:34:01;;;;;;;3.50;3.17;;;;;;;;;;6277616;22;20007;-79
2023/03/21 14:36:30;;;;;;;3.42;3.13;;;;;;;;;;6305409;22;20539;-79
2023/03/21 14:39:06;;;;;;;6.60;2.67;;;;;;;;;;6305199;22;20501;-79
2023/03/21 14:41:32;;;;;;;2.40;2.30;;;;;;;;;;6277238;22;20010;-79
2023/03/21 14:44:00;;;;;;;5.03;2.92;;;;;;;;;;6251874;22;20045;-79
2023/03/21 14:46:26;;;;;;;5.35;3.08;;;;;;;;;;6277430;22;20084;-80
2023/03/21 14:48:52;;;;;;;3.38;3.13;;;;;;;;;;6304150;22;20007;-78
2023/03/21 14:51:18;;;;;;;4.97;3.40;;;;;;;;;;6277782;22;20023;-79
2023/03/21 14:53:44;;;;;;;3.67;3.10;;;;;;;;;;6304576;22;20018;-79